sensor_id;sensor_type;location;lat;lon;timestamp;temperature;humidity
14016;DHT22;7083;48.854;9.158;2023-04-16T00:00:15;7.10;99.90
14016;DHT22;7083;48.854;9.158;2023-04-16T00:02:42;6.90;99.90
14016;DHT22;7083;48.854;9.158;2023-04-16T00:05:19;7.20;99.90
14016;DHT22;7083;48.854;9.158;2023-04-16T00:07:47;7.30;99.90
14016;DHT22;7083;48.854;9.158;2023-04-16T00:10:16;9.00;99.90
14016;DHT22;7083;48.854;9.158;2023-04-16T00:12:42;7.20;99.90
14016;DHT22;7083;48.854;9.158;2023-04-16T00:15:09;7.20;99.90
14016;DHT22;7083;48.854;9.158;2023-04-16T00:17:36;7.20;99.90
14016;DHT22;7083;48.854;9.158;2023-04-16T00:20:04;7.10;99.90
14016;DHT22;7083;48.854;9.158;2023-04-16T00:22:32;7.20;99.90
14016;DHT22;7083;48.854;9.158;2023-04-16T00:24:59;7.20;99.90
14016;DHT22;7083;48.854;9.158;2023-04-16T00:27:26;7.10;99.90
14016;DHT22;7083;48.854;9.158;2023-04-16T00:29:52;7.10;99.90
14016;DHT22;7083;48.854;9.158;2023-04-16T00:32:19;7.20;99.90
14016;DHT22;7083;48.854;9.158;2023-04-16T00:34:46;7.10;99.90
14016;DHT22;7083;48.854;9.158;2023-04-16T00:37:12;7.90;99.90
14016;DHT22;7083;48.854;9.158;2023-04-16T00:39:40;7.20;99.90
14016;DHT22;7083;48.854;9.158;2023-04-16T00:42:07;7.20;99.90
14016;DHT22;7083;48.854;9.158;2023-04-16T00:44:34;7.20;99.90
14016;DHT22;7083;48.854;9.158;2023-04-16T00:47:01;7.10;99.90
14016;DHT22;7083;48.854;9.158;2023-04-16T00:49:29;7.10;99.90
14016;DHT22;7083;48.854;9.158;2023-04-16T00:51:56;7.10;99.90
14016;DHT22;7083;48.854;9.158;2023-04-16T00:54:23;7.10;99.90
14016;DHT22;7083;48.854;9.158;2023-04-16T00:56:52;7.10;99.90
14016;DHT22;7083;48.854;9.158;2023-04-16T00:59:18;7.20;99.90
14016;DHT22;7083;48.854;9.158;2023-04-16T01:01:45;7.20;99.90
14016;DHT22;7083;48.854;9.158;2023-04-16T01:04:12;7.20;99.90
14016;DHT22;7083;48.854;9.158;2023-04-16T01:06:39;7.20;99.90
14016;DHT22;7083;48.854;9.158;2023-04-16T01:09:05;7.20;99.90
14016;DHT22;7083;48.854;9.158;2023-04-16T01:11:32;7.20;99.90
14016;DHT22;7083;48.854;9.158;2023-04-16T01:14:00;7.20;99.90
14016;DHT22;7083;48.854;9.158;2023-04-16T01:16:27;7.20;99.90
14016;DHT22;7083;48.854;9.158;2023-04-16T01:18:54;7.20;99.90
14016;DHT22;7083;48.854;9.158;2023-04-16T01:21:22;7.20;99.90
14016;DHT22;7083;48.854;9.158;2023-04-16T01:23:48;7.20;99.90
14016;DHT22;7083;48.854;9.158;2023-04-16T01:26:15;7.10;99.90
14016;DHT22;7083;48.854;9.158;2023-04-16T01:28:42;7.10;99.90
14016;DHT22;7083;48.854;9.158;2023-04-16T01:31:09;7.10;99.90
14016;DHT22;7083;48.854;9.158;2023-04-16T01:33:35;7.10;99.90
14016;DHT22;7083;48.854;9.158;2023-04-16T01:36:02;7.20;99.90
14016;DHT22;7083;48.854;9.158;2023-04-16T01:38:31;7.20;99.90
14016;DHT22;7083;48.854;9.158;2023-04-16T01:40:58;7.20;99.90
14016;DHT22;7083;48.854;9.158;2023-04-16T01:43:28;7.10;99.90
14016;DHT22;7083;48.854;9.158;2023-04-16T01:46:11;7.20;99.90
14016;DHT22;7083;48.854;9.158;2023-04-16T01:48:37;7.20;99.90
14016;DHT22;7083;48.854;9.158;2023-04-16T01:51:04;7.20;99.90
14016;DHT22;7083;48.854;9.158;2023-04-16T01:53:32;7.10;99.90
14016;DHT22;7083;48.854;9.158;2023-04-16T01:55:59;7.20;99.90
14016;DHT22;7083;48.854;9.158;2023-04-16T01:58:27;7.20;99.90
14016;DHT22;7083;48.854;9.158;2023-04-16T02:00:54;7.20;99.90
14016;DHT22;7083;48.854;9.158;2023-04-16T02:03:20;7.20;99.90
14016;DHT22;7083;48.854;9.158;2023-04-16T02:05:49;7.20;99.90
14016;DHT22;7083;48.854;9.158;2023-04-16T02:08:15;7.10;99.90
14016;DHT22;7083;48.854;9.158;2023-04-16T02:10:46;7.20;99.90
14016;DHT22;7083;48.854;9.158;2023-04-16T02:13:13;7.10;99.90
14016;DHT22;7083;48.854;9.158;2023-04-16T02:15:43;7.20;99.90
14016;DHT22;7083;48.854;9.158;2023-04-16T02:18:10;7.20;99.90
14016;DHT22;7083;48.854;9.158;2023-04-16T02:20:39;7.10;99.90
14016;DHT22;7083;48.854;9.158;2023-04-16T02:23:05;7.20;99.90
14016;DHT22;7083;48.854;9.158;2023-04-16T02:25:37;7.20;99.90
14016;DHT22;7083;48.854;9.158;2023-04-16T02:28:07;7.20;99.90
14016;DHT22;7083;48.854;9.158;2023-04-16T02:30:34;7.20;99.90
14016;DHT22;7083;48.854;9.158;2023-04-16T02:33:01;7.20;99.90
14016;DHT22;7083;48.854;9.158;2023-04-16T02:35:29;7.20;99.90
14016;DHT22;7083;48.854;9.158;2023-04-16T02:37:56;7.20;99.90
14016;DHT22;7083;48.854;9.158;2023-04-16T02:40:23;7.20;99.90
14016;DHT22;7083;48.854;9.158;2023-04-16T02:42:50;7.10;99.90
14016;DHT22;7083;48.854;9.158;2023-04-16T02:45:18;7.10;99.90
14016;DHT22;7083;48.854;9.158;2023-04-16T02:47:45;7.10;99.90
14016;DHT22;7083;48.854;9.158;2023-04-16T02:50:12;7.20;99.90
14016;DHT22;7083;48.854;9.158;2023-04-16T02:52:39;7.20;99.90
14016;DHT22;7083;48.854;9.158;2023-04-16T02:55:06;7.20;99.90
14016;DHT22;7083;48.854;9.158;2023-04-16T02:57:33;7.20;99.90
14016;DHT22;7083;48.854;9.158;2023-04-16T03:00:00;7.20;99.90
14016;DHT22;7083;48.854;9.158;2023-04-16T03:02:30;7.10;99.90
14016;DHT22;7083;48.854;9.158;2023-04-16T03:04:56;7.10;99.90
14016;DHT22;7083;48.854;9.158;2023-04-16T03:07:23;7.20;99.90
14016;DHT22;7083;48.854;9.158;2023-04-16T03:09:50;7.20;99.90
14016;DHT22;7083;48.854;9.158;2023-04-16T03:12:17;7.20;99.90
14016;DHT22;7083;48.854;9.158;2023-04-16T03:14:43;7.10;99.90
14016;DHT22;7083;48.854;9.158;2023-04-16T03:17:10;7.10;99.90
14016;DHT22;7083;48.854;9.158;2023-04-16T03:19:38;7.20;99.90
14016;DHT22;7083;48.854;9.158;2023-04-16T03:22:05;7.10;99.90
14016;DHT22;7083;48.854;9.158;2023-04-16T03:24:32;7.10;99.90
14016;DHT22;7083;48.854;9.158;2023-04-16T03:26:58;7.10;99.90
14016;DHT22;7083;48.854;9.158;2023-04-16T03:29:26;7.10;99.90
14016;DHT22;7083;48.854;9.158;2023-04-16T03:31:53;7.10;99.90
14016;DHT22;7083;48.854;9.158;2023-04-16T03:34:20;7.10;99.90
14016;DHT22;7083;48.854;9.158;2023-04-16T03:36:48;7.20;99.90
14016;DHT22;7083;48.854;9.158;2023-04-16T03:39:15;7.10;99.90
14016;DHT22;7083;48.854;9.158;2023-04-16T03:41:41;7.10;99.90
14016;DHT22;7083;48.854;9.158;2023-04-16T03:44:08;7.10;99.90
14016;DHT22;7083;48.854;9.158;2023-04-16T03:46:35;7.10;99.90
14016;DHT22;7083;48.854;9.158;2023-04-16T03:49:02;7.10;99.90
14016;DHT22;7083;48.854;9.158;2023-04-16T03:51:28;7.10;99.90
14016;DHT22;7083;48.854;9.158;2023-04-16T03:53:56;7.10;99.90
14016;DHT22;7083;48.854;9.158;2023-04-16T03:56:23;7.10;99.90
14016;DHT22;7083;48.854;9.158;2023-04-16T03:58:50;7.10;99.90
14016;DHT22;7083;48.854;9.158;2023-04-16T04:01:16;7.10;99.90
14016;DHT22;7083;48.854;9.158;2023-04-16T04:03:43;7.10;99.90
14016;DHT22;7083;48.854;9.158;2023-04-16T04:06:10;7.10;99.90
14016;DHT22;7083;48.854;9.158;2023-04-16T04:08:37;7.10;99.90
14016;DHT22;7083;48.854;9.158;2023-04-16T04:11:05;7.10;99.90
14016;DHT22;7083;48.854;9.158;2023-04-16T04:13:32;7.10;99.90
14016;DHT22;7083;48.854;9.158;2023-04-16T04:15:58;7.10;99.90
14016;DHT22;7083;48.854;9.158;2023-04-16T04:18:25;7.10;99.90
14016;DHT22;7083;48.854;9.158;2023-04-16T04:20:52;7.10;99.90
14016;DHT22;7083;48.854;9.158;2023-04-16T04:23:18;7.10;99.90
14016;DHT22;7083;48.854;9.158;2023-04-16T04:25:45;7.10;99.90
14016;DHT22;7083;48.854;9.158;2023-04-16T04:28:13;7.00;99.90
14016;DHT22;7083;48.854;9.158;2023-04-16T04:30:40;7.00;99.90
14016;DHT22;7083;48.854;9.158;2023-04-16T04:33:07;7.10;99.90
14016;DHT22;7083;48.854;9.158;2023-04-16T04:35:34;7.10;99.90
14016;DHT22;7083;48.854;9.158;2023-04-16T04:38:01;7.10;99.90
14016;DHT22;7083;48.854;9.158;2023-04-16T04:40:28;7.10;99.90
14016;DHT22;7083;48.854;9.158;2023-04-16T04:42:54;7.10;99.90
14016;DHT22;7083;48.854;9.158;2023-04-16T04:45:23;7.10;99.90
14016;DHT22;7083;48.854;9.158;2023-04-16T04:47:51;7.10;99.90
14016;DHT22;7083;48.854;9.158;2023-04-16T04:50:17;7.10;99.90
14016;DHT22;7083;48.854;9.158;2023-04-16T04:52:44;7.00;99.90
14016;DHT22;7083;48.854;9.158;2023-04-16T04:55:11;7.10;99.90
14016;DHT22;7083;48.854;9.158;2023-04-16T04:57:40;7.10;99.90
14016;DHT22;7083;48.854;9.158;2023-04-16T05:00:07;7.10;99.90
14016;DHT22;7083;48.854;9.158;2023-04-16T05:02:35;7.10;99.90
14016;DHT22;7083;48.854;9.158;2023-04-16T05:05:03;7.10;99.90
14016;DHT22;7083;48.854;9.158;2023-04-16T05:07:30;7.10;99.90
14016;DHT22;7083;48.854;9.158;2023-04-16T05:09:57;7.10;99.90
14016;DHT22;7083;48.854;9.158;2023-04-16T05:12:24;8.10;99.90
14016;DHT22;7083;48.854;9.158;2023-04-16T05:14:51;7.10;99.90
14016;DHT22;7083;48.854;9.158;2023-04-16T05:17:17;7.10;99.90
14016;DHT22;7083;48.854;9.158;2023-04-16T05:19:45;7.10;99.90
14016;DHT22;7083;48.854;9.158;2023-04-16T05:22:12;7.10;99.90
14016;DHT22;7083;48.854;9.158;2023-04-16T05:24:39;7.10;99.90
14016;DHT22;7083;48.854;9.158;2023-04-16T05:27:05;7.10;99.90
14016;DHT22;7083;48.854;9.158;2023-04-16T05:29:32;7.10;99.90
14016;DHT22;7083;48.854;9.158;2023-04-16T05:31:59;7.00;99.90
14016;DHT22;7083;48.854;9.158;2023-04-16T05:34:26;7.10;99.90
14016;DHT22;7083;48.854;9.158;2023-04-16T05:36:54;8.10;99.90
14016;DHT22;7083;48.854;9.158;2023-04-16T05:39:21;7.10;99.90
14016;DHT22;7083;48.854;9.158;2023-04-16T05:41:47;7.10;99.90
14016;DHT22;7083;48.854;9.158;2023-04-16T05:44:14;7.10;99.90
14016;DHT22;7083;48.854;9.158;2023-04-16T05:46:41;7.10;99.90
14016;DHT22;7083;48.854;9.158;2023-04-16T05:49:07;7.10;99.90
14016;DHT22;7083;48.854;9.158;2023-04-16T05:51:34;7.10;99.90
14016;DHT22;7083;48.854;9.158;2023-04-16T05:54:02;7.10;99.90
14016;DHT22;7083;48.854;9.158;2023-04-16T05:56:29;7.10;99.90
14016;DHT22;7083;48.854;9.158;2023-04-16T05:58:56;7.10;99.90
14016;DHT22;7083;48.854;9.158;2023-04-16T06:01:24;7.10;99.90
14016;DHT22;7083;48.854;9.158;2023-04-16T06:03:51;7.10;99.90
14016;DHT22;7083;48.854;9.158;2023-04-16T06:06:18;7.10;99.90
14016;DHT22;7083;48.854;9.158;2023-04-16T06:08:44;7.10;99.90
14016;DHT22;7083;48.854;9.158;2023-04-16T06:11:12;7.10;99.90
14016;DHT22;7083;48.854;9.158;2023-04-16T06:13:39;7.20;99.90
14016;DHT22;7083;48.854;9.158;2023-04-16T06:16:06;7.10;99.90
14016;DHT22;7083;48.854;9.158;2023-04-16T06:18:33;7.20;99.90
14016;DHT22;7083;48.854;9.158;2023-04-16T06:20:59;7.20;99.90
14016;DHT22;7083;48.854;9.158;2023-04-16T06:23:26;7.20;99.90
14016;DHT22;7083;48.854;9.158;2023-04-16T06:25:53;7.20;99.90
14016;DHT22;7083;48.854;9.158;2023-04-16T06:28:21;7.20;99.90
14016;DHT22;7083;48.854;9.158;2023-04-16T06:30:48;7.20;99.90
14016;DHT22;7083;48.854;9.158;2023-04-16T06:33:15;7.20;99.90
14016;DHT22;7083;48.854;9.158;2023-04-16T06:35:42;7.20;99.90
14016;DHT22;7083;48.854;9.158;2023-04-16T06:38:09;7.30;99.90
14016;DHT22;7083;48.854;9.158;2023-04-16T06:40:36;7.30;99.90
14016;DHT22;7083;48.854;9.158;2023-04-16T06:43:03;7.30;99.90
14016;DHT22;7083;48.854;9.158;2023-04-16T06:45:32;7.30;99.90
14016;DHT22;7083;48.854;9.158;2023-04-16T06:47:59;7.30;99.90
14016;DHT22;7083;48.854;9.158;2023-04-16T06:50:26;7.30;99.90
14016;DHT22;7083;48.854;9.158;2023-04-16T06:52:53;7.30;99.90
14016;DHT22;7083;48.854;9.158;2023-04-16T06:55:20;7.30;99.90
14016;DHT22;7083;48.854;9.158;2023-04-16T06:57:46;7.30;99.90
14016;DHT22;7083;48.854;9.158;2023-04-16T07:00:13;7.30;99.90
14016;DHT22;7083;48.854;9.158;2023-04-16T07:02:42;7.30;99.90
14016;DHT22;7083;48.854;9.158;2023-04-16T07:05:08;7.30;99.90
14016;DHT22;7083;48.854;9.158;2023-04-16T07:07:35;7.40;99.90
14016;DHT22;7083;48.854;9.158;2023-04-16T07:10:02;7.40;99.90
14016;DHT22;7083;48.854;9.158;2023-04-16T07:12:30;7.40;99.90
14016;DHT22;7083;48.854;9.158;2023-04-16T07:14:57;7.50;99.90
14016;DHT22;7083;48.854;9.158;2023-04-16T07:17:24;7.50;99.90
14016;DHT22;7083;48.854;9.158;2023-04-16T07:19:52;7.50;99.90
14016;DHT22;7083;48.854;9.158;2023-04-16T07:22:19;7.50;99.90
14016;DHT22;7083;48.854;9.158;2023-04-16T07:24:45;7.50;99.90
14016;DHT22;7083;48.854;9.158;2023-04-16T07:27:12;7.50;99.90
14016;DHT22;7083;48.854;9.158;2023-04-16T07:29:39;7.80;99.90
14016;DHT22;7083;48.854;9.158;2023-04-16T07:32:06;7.40;99.90
14016;DHT22;7083;48.854;9.158;2023-04-16T07:34:33;7.50;99.90
14016;DHT22;7083;48.854;9.158;2023-04-16T07:37:01;7.40;99.90
14016;DHT22;7083;48.854;9.158;2023-04-16T07:39:27;7.50;99.90
14016;DHT22;7083;48.854;9.158;2023-04-16T07:41:54;7.50;99.90
14016;DHT22;7083;48.854;9.158;2023-04-16T07:44:21;7.50;99.90
14016;DHT22;7083;48.854;9.158;2023-04-16T07:46:47;7.50;99.90
14016;DHT22;7083;48.854;9.158;2023-04-16T07:49:14;7.50;99.90
14016;DHT22;7083;48.854;9.158;2023-04-16T07:51:41;7.50;99.90
14016;DHT22;7083;48.854;9.158;2023-04-16T07:54:09;7.50;99.90
14016;DHT22;7083;48.854;9.158;2023-04-16T07:56:35;7.50;99.90
14016;DHT22;7083;48.854;9.158;2023-04-16T07:59:02;7.50;99.90
14016;DHT22;7083;48.854;9.158;2023-04-16T08:01:29;7.50;99.90
14016;DHT22;7083;48.854;9.158;2023-04-16T08:03:56;7.50;99.90
14016;DHT22;7083;48.854;9.158;2023-04-16T08:06:23;7.50;99.90
14016;DHT22;7083;48.854;9.158;2023-04-16T08:08:51;7.50;99.90
14016;DHT22;7083;48.854;9.158;2023-04-16T08:11:19;7.50;99.90
14016;DHT22;7083;48.854;9.158;2023-04-16T08:13:46;7.50;99.90
14016;DHT22;7083;48.854;9.158;2023-04-16T08:16:12;7.60;99.90
14016;DHT22;7083;48.854;9.158;2023-04-16T08:18:39;7.60;99.90
14016;DHT22;7083;48.854;9.158;2023-04-16T08:21:06;7.70;99.90
14016;DHT22;7083;48.854;9.158;2023-04-16T08:23:32;7.70;99.90
14016;DHT22;7083;48.854;9.158;2023-04-16T08:26:00;8.80;99.90
14016;DHT22;7083;48.854;9.158;2023-04-16T08:28:28;7.80;99.90
14016;DHT22;7083;48.854;9.158;2023-04-16T08:30:54;7.80;99.90
14016;DHT22;7083;48.854;9.158;2023-04-16T08:33:21;7.80;99.90
14016;DHT22;7083;48.854;9.158;2023-04-16T08:35:48;7.80;99.90
14016;DHT22;7083;48.854;9.158;2023-04-16T08:38:14;7.70;99.90
14016;DHT22;7083;48.854;9.158;2023-04-16T08:40:41;7.70;99.90
14016;DHT22;7083;48.854;9.158;2023-04-16T08:43:09;7.70;99.90
14016;DHT22;7083;48.854;9.158;2023-04-16T08:45:40;7.70;99.90
14016;DHT22;7083;48.854;9.158;2023-04-16T08:48:07;7.70;99.90
14016;DHT22;7083;48.854;9.158;2023-04-16T08:50:36;7.80;99.90
14016;DHT22;7083;48.854;9.158;2023-04-16T08:53:05;7.80;99.90
14016;DHT22;7083;48.854;9.158;2023-04-16T08:55:36;7.80;99.90
14016;DHT22;7083;48.854;9.158;2023-04-16T08:58:07;7.80;99.90
14016;DHT22;7083;48.854;9.158;2023-04-16T09:00:36;7.80;99.90
14016;DHT22;7083;48.854;9.158;2023-04-16T09:03:08;7.90;99.90
14016;DHT22;7083;48.854;9.158;2023-04-16T09:05:35;7.90;99.90
14016;DHT22;7083;48.854;9.158;2023-04-16T09:08:01;7.90;99.90
14016;DHT22;7083;48.854;9.158;2023-04-16T09:10:30;8.00;99.90
14016;DHT22;7083;48.854;9.158;2023-04-16T09:12:57;8.00;99.90
14016;DHT22;7083;48.854;9.158;2023-04-16T09:15:24;8.00;99.90
14016;DHT22;7083;48.854;9.158;2023-04-16T09:17:51;8.10;99.90
14016;DHT22;7083;48.854;9.158;2023-04-16T09:20:19;8.10;99.90
14016;DHT22;7083;48.854;9.158;2023-04-16T09:22:46;8.10;99.90
14016;DHT22;7083;48.854;9.158;2023-04-16T09:25:13;8.20;99.90
14016;DHT22;7083;48.854;9.158;2023-04-16T09:27:40;8.20;99.90
14016;DHT22;7083;48.854;9.158;2023-04-16T09:30:21;8.20;99.90
14016;DHT22;7083;48.854;9.158;2023-04-16T09:32:48;8.20;99.90
14016;DHT22;7083;48.854;9.158;2023-04-16T09:35:17;8.10;99.90
14016;DHT22;7083;48.854;9.158;2023-04-16T09:37:54;8.10;99.90
14016;DHT22;7083;48.854;9.158;2023-04-16T09:40:23;8.20;99.90
14016;DHT22;7083;48.854;9.158;2023-04-16T09:42:51;8.10;99.90
14016;DHT22;7083;48.854;9.158;2023-04-16T09:45:19;8.00;99.90
14016;DHT22;7083;48.854;9.158;2023-04-16T09:47:45;8.00;99.90
14016;DHT22;7083;48.854;9.158;2023-04-16T09:50:14;8.00;99.90
14016;DHT22;7083;48.854;9.158;2023-04-16T09:52:43;8.00;99.90
14016;DHT22;7083;48.854;9.158;2023-04-16T09:55:11;7.90;99.90
14016;DHT22;7083;48.854;9.158;2023-04-16T09:57:38;7.90;99.90
14016;DHT22;7083;48.854;9.158;2023-04-16T10:00:06;7.90;99.90
14016;DHT22;7083;48.854;9.158;2023-04-16T10:02:34;8.00;99.90
14016;DHT22;7083;48.854;9.158;2023-04-16T10:05:03;8.00;99.90
14016;DHT22;7083;48.854;9.158;2023-04-16T10:07:33;8.00;99.90
14016;DHT22;7083;48.854;9.158;2023-04-16T10:10:00;8.10;99.90
14016;DHT22;7083;48.854;9.158;2023-04-16T10:12:29;8.10;99.90
14016;DHT22;7083;48.854;9.158;2023-04-16T10:14:57;8.20;99.90
14016;DHT22;7083;48.854;9.158;2023-04-16T10:17:24;8.30;99.90
14016;DHT22;7083;48.854;9.158;2023-04-16T10:19:54;8.30;99.90
14016;DHT22;7083;48.854;9.158;2023-04-16T10:22:21;8.40;99.90
14016;DHT22;7083;48.854;9.158;2023-04-16T10:24:49;8.30;99.90
14016;DHT22;7083;48.854;9.158;2023-04-16T10:27:16;8.40;99.90
14016;DHT22;7083;48.854;9.158;2023-04-16T10:29:46;8.40;99.90
14016;DHT22;7083;48.854;9.158;2023-04-16T10:32:13;8.40;99.90
14016;DHT22;7083;48.854;9.158;2023-04-16T10:34:41;8.50;99.90
14016;DHT22;7083;48.854;9.158;2023-04-16T10:37:08;8.60;99.90
14016;DHT22;7083;48.854;9.158;2023-04-16T10:39:35;8.50;99.90
14016;DHT22;7083;48.854;9.158;2023-04-16T10:42:06;8.60;99.90
14016;DHT22;7083;48.854;9.158;2023-04-16T10:44:34;8.60;99.90
14016;DHT22;7083;48.854;9.158;2023-04-16T10:47:02;8.70;99.90
14016;DHT22;7083;48.854;9.158;2023-04-16T10:49:35;8.60;99.90
14016;DHT22;7083;48.854;9.158;2023-04-16T10:52:10;8.40;99.90
14016;DHT22;7083;48.854;9.158;2023-04-16T10:54:38;8.60;99.90
14016;DHT22;7083;48.854;9.158;2023-04-16T10:57:06;8.60;99.90
14016;DHT22;7083;48.854;9.158;2023-04-16T10:59:34;8.70;99.90
14016;DHT22;7083;48.854;9.158;2023-04-16T11:02:07;8.70;99.90
14016;DHT22;7083;48.854;9.158;2023-04-16T11:04:36;8.70;99.90
14016;DHT22;7083;48.854;9.158;2023-04-16T11:07:13;8.70;99.90
14016;DHT22;7083;48.854;9.158;2023-04-16T11:09:51;8.60;99.90
14016;DHT22;7083;48.854;9.158;2023-04-16T11:12:19;8.70;99.90
14016;DHT22;7083;48.854;9.158;2023-04-16T11:14:47;8.60;99.90
14016;DHT22;7083;48.854;9.158;2023-04-16T11:17:16;8.60;99.90
14016;DHT22;7083;48.854;9.158;2023-04-16T11:19:43;8.60;99.90
14016;DHT22;7083;48.854;9.158;2023-04-16T11:22:12;8.60;99.90
14016;DHT22;7083;48.854;9.158;2023-04-16T11:24:41;8.60;99.90
14016;DHT22;7083;48.854;9.158;2023-04-16T11:27:08;8.50;99.90
14016;DHT22;7083;48.854;9.158;2023-04-16T11:29:35;8.50;99.90
14016;DHT22;7083;48.854;9.158;2023-04-16T11:32:02;8.50;99.90
14016;DHT22;7083;48.854;9.158;2023-04-16T11:34:30;8.40;99.90
14016;DHT22;7083;48.854;9.158;2023-04-16T11:36:57;8.50;99.90
14016;DHT22;7083;48.854;9.158;2023-04-16T11:39:24;8.50;99.90
14016;DHT22;7083;48.854;9.158;2023-04-16T11:41:51;8.50;99.90
14016;DHT22;7083;48.854;9.158;2023-04-16T11:44:22;8.50;99.90
14016;DHT22;7083;48.854;9.158;2023-04-16T11:46:49;8.50;99.90
14016;DHT22;7083;48.854;9.158;2023-04-16T11:49:16;8.50;99.90
14016;DHT22;7083;48.854;9.158;2023-04-16T11:51:45;8.60;99.90
14016;DHT22;7083;48.854;9.158;2023-04-16T11:54:19;8.60;99.90
14016;DHT22;7083;48.854;9.158;2023-04-16T11:56:47;8.60;99.90
14016;DHT22;7083;48.854;9.158;2023-04-16T11:59:15;8.60;99.90
14016;DHT22;7083;48.854;9.158;2023-04-16T12:01:46;8.60;99.90
14016;DHT22;7083;48.854;9.158;2023-04-16T12:04:13;8.60;99.90
14016;DHT22;7083;48.854;9.158;2023-04-16T12:09:24;8.60;99.90
14016;DHT22;7083;48.854;9.158;2023-04-16T12:11:52;8.60;99.90
14016;DHT22;7083;48.854;9.158;2023-04-16T12:14:18;8.60;99.90
14016;DHT22;7083;48.854;9.158;2023-04-16T12:16:45;8.60;99.90
14016;DHT22;7083;48.854;9.158;2023-04-16T12:19:12;8.60;99.90
14016;DHT22;7083;48.854;9.158;2023-04-16T12:21:41;8.50;99.90
14016;DHT22;7083;48.854;9.158;2023-04-16T12:24:09;8.50;99.90
14016;DHT22;7083;48.854;9.158;2023-04-16T12:26:43;8.50;99.90
14016;DHT22;7083;48.854;9.158;2023-04-16T12:29:15;8.50;99.90
14016;DHT22;7083;48.854;9.158;2023-04-16T12:31:42;8.50;99.90
14016;DHT22;7083;48.854;9.158;2023-04-16T12:34:08;8.50;99.90
14016;DHT22;7083;48.854;9.158;2023-04-16T12:36:35;8.50;99.90
14016;DHT22;7083;48.854;9.158;2023-04-16T12:39:02;8.50;99.90
14016;DHT22;7083;48.854;9.158;2023-04-16T12:41:29;8.50;99.90
14016;DHT22;7083;48.854;9.158;2023-04-16T12:44:04;8.40;99.90
14016;DHT22;7083;48.854;9.158;2023-04-16T12:46:34;8.50;99.90
14016;DHT22;7083;48.854;9.158;2023-04-16T12:49:00;8.40;99.90
14016;DHT22;7083;48.854;9.158;2023-04-16T12:51:27;8.50;99.90
14016;DHT22;7083;48.854;9.158;2023-04-16T12:53:54;8.50;99.90
14016;DHT22;7083;48.854;9.158;2023-04-16T12:56:21;8.50;99.90
14016;DHT22;7083;48.854;9.158;2023-04-16T12:58:47;8.50;99.90
14016;DHT22;7083;48.854;9.158;2023-04-16T13:01:17;8.50;99.90
14016;DHT22;7083;48.854;9.158;2023-04-16T13:03:44;8.50;99.90
14016;DHT22;7083;48.854;9.158;2023-04-16T13:06:11;8.50;99.90
14016;DHT22;7083;48.854;9.158;2023-04-16T13:08:38;8.50;99.90
14016;DHT22;7083;48.854;9.158;2023-04-16T13:11:05;8.50;99.90
14016;DHT22;7083;48.854;9.158;2023-04-16T13:13:32;8.50;99.90
14016;DHT22;7083;48.854;9.158;2023-04-16T13:15:58;8.50;99.90
14016;DHT22;7083;48.854;9.158;2023-04-16T13:18:26;8.60;99.90
14016;DHT22;7083;48.854;9.158;2023-04-16T13:20:53;8.60;99.90
14016;DHT22;7083;48.854;9.158;2023-04-16T13:23:20;8.60;99.90
14016;DHT22;7083;48.854;9.158;2023-04-16T13:25:47;8.60;99.90
14016;DHT22;7083;48.854;9.158;2023-04-16T13:28:13;8.60;99.90
14016;DHT22;7083;48.854;9.158;2023-04-16T13:30:40;8.70;99.90
14016;DHT22;7083;48.854;9.158;2023-04-16T13:33:07;8.70;99.90
14016;DHT22;7083;48.854;9.158;2023-04-16T13:35:35;8.80;99.90
14016;DHT22;7083;48.854;9.158;2023-04-16T13:38:03;8.80;99.90
14016;DHT22;7083;48.854;9.158;2023-04-16T13:40:30;8.80;99.90
14016;DHT22;7083;48.854;9.158;2023-04-16T13:42:57;8.80;99.90
14016;DHT22;7083;48.854;9.158;2023-04-16T13:45:24;8.70;99.90
14016;DHT22;7083;48.854;9.158;2023-04-16T13:47:53;9.20;99.90
14016;DHT22;7083;48.854;9.158;2023-04-16T13:50:20;8.70;99.90
14016;DHT22;7083;48.854;9.158;2023-04-16T13:52:48;8.70;99.90
14016;DHT22;7083;48.854;9.158;2023-04-16T13:55:15;8.60;99.90
14016;DHT22;7083;48.854;9.158;2023-04-16T13:57:44;8.70;99.90
14016;DHT22;7083;48.854;9.158;2023-04-16T14:00:11;8.70;99.90
14016;DHT22;7083;48.854;9.158;2023-04-16T14:02:38;8.70;99.90
14016;DHT22;7083;48.854;9.158;2023-04-16T14:05:05;8.70;99.90
14016;DHT22;7083;48.854;9.158;2023-04-16T14:07:32;8.70;99.90
14016;DHT22;7083;48.854;9.158;2023-04-16T14:10:00;8.60;99.90
14016;DHT22;7083;48.854;9.158;2023-04-16T14:12:27;8.70;99.90
14016;DHT22;7083;48.854;9.158;2023-04-16T14:14:54;8.70;99.90
14016;DHT22;7083;48.854;9.158;2023-04-16T14:17:21;8.70;99.90
14016;DHT22;7083;48.854;9.158;2023-04-16T14:19:47;8.70;99.90
14016;DHT22;7083;48.854;9.158;2023-04-16T14:22:14;8.60;99.90
14016;DHT22;7083;48.854;9.158;2023-04-16T14:24:42;8.60;99.90
14016;DHT22;7083;48.854;9.158;2023-04-16T14:27:10;8.60;99.90
14016;DHT22;7083;48.854;9.158;2023-04-16T14:29:37;8.60;99.90
14016;DHT22;7083;48.854;9.158;2023-04-16T14:32:04;8.60;99.90
14016;DHT22;7083;48.854;9.158;2023-04-16T14:34:31;8.70;99.90
14016;DHT22;7083;48.854;9.158;2023-04-16T14:36:58;8.60;99.90
14016;DHT22;7083;48.854;9.158;2023-04-16T14:39:25;8.60;99.90
14016;DHT22;7083;48.854;9.158;2023-04-16T14:41:51;8.70;99.90
14016;DHT22;7083;48.854;9.158;2023-04-16T14:44:19;8.70;99.90
14016;DHT22;7083;48.854;9.158;2023-04-16T14:46:47;8.60;99.90
14016;DHT22;7083;48.854;9.158;2023-04-16T14:49:13;8.70;99.90
14016;DHT22;7083;48.854;9.158;2023-04-16T14:51:41;8.70;99.90
14016;DHT22;7083;48.854;9.158;2023-04-16T14:54:07;8.70;99.90
14016;DHT22;7083;48.854;9.158;2023-04-16T14:56:34;8.70;99.90
14016;DHT22;7083;48.854;9.158;2023-04-16T14:59:01;8.80;99.90
14016;DHT22;7083;48.854;9.158;2023-04-16T15:01:29;8.80;99.90
14016;DHT22;7083;48.854;9.158;2023-04-16T15:03:56;8.80;99.90
14016;DHT22;7083;48.854;9.158;2023-04-16T15:06:23;8.80;99.90
14016;DHT22;7083;48.854;9.158;2023-04-16T15:08:50;8.70;99.90
14016;DHT22;7083;48.854;9.158;2023-04-16T15:11:17;8.70;99.90
14016;DHT22;7083;48.854;9.158;2023-04-16T15:13:44;8.70;99.90
14016;DHT22;7083;48.854;9.158;2023-04-16T15:16:10;8.70;99.90
14016;DHT22;7083;48.854;9.158;2023-04-16T15:18:38;8.60;99.90
14016;DHT22;7083;48.854;9.158;2023-04-16T15:21:05;8.70;99.90
14016;DHT22;7083;48.854;9.158;2023-04-16T15:23:32;8.60;99.90
14016;DHT22;7083;48.854;9.158;2023-04-16T15:25:59;8.60;99.90
14016;DHT22;7083;48.854;9.158;2023-04-16T15:28:25;8.60;99.90
14016;DHT22;7083;48.854;9.158;2023-04-16T15:30:52;8.60;99.90
14016;DHT22;7083;48.854;9.158;2023-04-16T15:33:20;8.60;99.90
14016;DHT22;7083;48.854;9.158;2023-04-16T15:35:48;8.60;99.90
14016;DHT22;7083;48.854;9.158;2023-04-16T15:38:15;8.60;99.90
14016;DHT22;7083;48.854;9.158;2023-04-16T15:40:42;8.60;99.90
14016;DHT22;7083;48.854;9.158;2023-04-16T15:43:09;8.50;99.90
14016;DHT22;7083;48.854;9.158;2023-04-16T15:45:35;8.60;99.90
14016;DHT22;7083;48.854;9.158;2023-04-16T15:48:03;8.50;99.90
14016;DHT22;7083;48.854;9.158;2023-04-16T15:50:30;8.60;99.90
14016;DHT22;7083;48.854;9.158;2023-04-16T15:52:59;8.60;99.90
14016;DHT22;7083;48.854;9.158;2023-04-16T15:55:26;8.60;99.90
14016;DHT22;7083;48.854;9.158;2023-04-16T15:57:53;8.60;99.90
14016;DHT22;7083;48.854;9.158;2023-04-16T16:00:19;8.60;99.90
14016;DHT22;7083;48.854;9.158;2023-04-16T16:02:46;8.60;99.90
14016;DHT22;7083;48.854;9.158;2023-04-16T16:05:14;8.60;99.90